Sun, Arizona
Current Conditions -  °F | °C
As of 12:58 AM on Friday 19 Dec 2014 (Local Time) from KDMA Reporting Station
Clear Clear  
Wind Chill: 35°   Ceiling: Unl
Heat Index: 39°   Visibility: 10mi
Dew Point: 38°   Wind: 6mph
Humidity: 98%   Direction: 160°SSE
Pressure: 30.17"   Gusts: NA
Location:  32.2456°N, 110.948°W
Report Text: KDMA 190758Z AUTO 16005KT 10SM CLR 04/04 A3017 RMK AO2 SLP209 T00390036 $
Loading
Personal Weather Stations






























Interactive Weather Map New forecast layout! Learn more

10-Day Weather Forecast

Advertisements
Track Severe Weather on mobile